SCC: Mid-Ohio final practice times

Pos Num Class Team Time Gap To 1st Speed --- --- ----- ------------------------------ ---------- ------- ------- ------- 1. 96 GS Turner Motorsport 1:34.624 85.906 2. 60...

Pos Num Class Team                                 Time     Gap  To 1st   Speed
--- --- ----- ------------------------------ ---------- ------- ------- -------
 1.  96 GS    Turner Motorsport                1:34.624                  85.906
 2.  60 GS    Finlay Motorsports               1:35.074   0.450   0.450  85.500
 3.  05 GS    Multimatic Motorsports           1:35.159   0.085   0.535  85.423
 4.  99 GS    Anchor Racing                    1:35.188   0.029   0.564  85.397
 5.  38 GS    BGB Motorsports                  1:35.234   0.046   0.610  85.356
 6.  11 GS    Powell Motorsport                1:35.437   0.203   0.813  85.175
 7.  10 GS    Champion Motorsports             1:35.456   0.019   0.832  85.158
 8.  93 GS    Anchor Racing                    1:35.683   0.227   1.059  84.956
 9.  09 GS    Automatic Racing                 1:35.709   0.026   1.085  84.932
10.   5 GS    Blackforest Motorsports          1:35.794   0.085   1.170  84.857
11.  55 GS    Multimatic Motorsports           1:35.877   0.083   1.253  84.784
12.  17 GS    Doncaster Racing                 1:35.937   0.060   1.313  84.731
13.  83 GS    BGB Motorsports                  1:35.993   0.056   1.369  84.681
14.  21 GS    Bodymotion Racing                1:36.163   0.170   1.539  84.531
15.   7 GS    Power Racing Team                1:36.190   0.027   1.566  84.508
16.  89 GS    LNS Motorsports                  1:36.318   0.128   1.694  84.395
17.  16 GS    Zoom Motorsports                 1:36.325   0.007   1.701  84.389
18.  59 GS    Rehagen Racing                   1:36.433   0.108   1.809  84.295
19.  07 GS    Powell Motorsport                1:36.769   0.336   2.145  84.002
20.  88 GS    Knobel Racing                    1:37.180   0.411   2.556  83.647
21.  13 GS    Unitech Racing                   1:37.188   0.008   2.564  83.640
22.  91 GS    Fiorano Racing                   1:37.420   0.232   2.796  83.441
23.  40 GS    Team Sahlen                      1:37.972   0.552   3.348  82.971
24.  43 GS    Team Sahlen                      1:38.056   0.084   3.432  82.900
25.  58 GS    Rehagen Racing                   1:38.155   0.099   3.531  82.816
26.  92 GS    Anchor Racing                    1:38.457   0.302   3.833  82.562
27.  47 GS    TF Racing                        1:38.498   0.041   3.874  82.528
28.  63 GS    Team RPM                         1:38.526   0.028   3.902  82.504
29.  90 GS    Automatic Racing                 1:38.608   0.082   3.984  82.436
30.  85 GS    Knobel Racing                    1:38.835   0.227   4.211  82.246
31.  00 ST    Georgian Bay Motorsports         1:39.025   0.190   4.401  82.088
32.  75 ST    Kensai Racing                    1:39.133   0.108   4.509  81.999
33.  70 ST    SpeedSource                      1:39.148   0.015   4.524  81.987
34.  69 GS    Krohn Racing/TRG                 1:39.167   0.019   4.543  81.971
35.  06 ST    Compass360/Racing                1:39.304   0.137   4.680  81.858
36.   2 ST    2                                1:39.369   0.065   4.745  81.804
37.  27 ST    Bill Fenton Motorsports          1:39.551   0.182   4.927  81.655
38.  39 ST    Matt Connolly Motorsports        1:39.636   0.085   5.012  81.585
39.  98 ST    Stewart Motorsports              1:39.808   0.172   5.184  81.444
40.  01 ST    Georgian Bay Motorsports         1:39.853   0.045   5.229  81.408
41.  64 ST    Matt Connolly Motorsports        1:39.862   0.009   5.238  81.400
42.  74 ST    Kensai Racing                    1:40.033   0.171   5.409  81.261
43.  32 ST    Franklin American                1:40.118   0.085   5.494  81.192
44.  95 ST    Turner Motorsports               1:40.169   0.051   5.545  81.151
45.   0 ST    0                                1:40.299   0.130   5.675  81.046
46.  65 ST    SpeedSource                      1:40.390   0.091   5.766  80.972
47.  18 GS    Race Prep Motorsports            1:40.463   0.073   5.839  80.913
48.  66 ST    SpeedSource                      1:40.508   0.045   5.884  80.877
49.  68 ST    SpeedSource                      1:40.843   0.335   6.219  80.608
50.  97 ST    Turner Motorsports               1:40.930   0.087   6.306  80.539
51.  29 ST    Bill Fenton Motorsports          1:40.944   0.014   6.320  80.528
52.  20 ST    Nuzzo Motorsports                1:41.146   0.202   6.522  80.367
53.  72 ST    Anchor Racing                    1:41.617   0.471   6.993  79.994
54.  71 ST    TC Kline Racing                  1:41.765   0.148   7.141  79.878
55.  49 ST    Southpaw Racing                  1:42.033   0.268   7.409  79.668
56.  46 ST    Franklin American Mortgage       1:42.427   0.394   7.803  79.362
57.  67 ST    SpeedSource                      1:42.457   0.030   7.833  79.339
58.  94 ST    Radial Motorsports               1:42.689   0.232   8.065  79.159
59.  02 ST    Nuzzo Motorsports                1:42.708   0.019   8.084  79.145
60.  62 ST    DEI Racers Group                 1:43.523   0.815   8.899  78.522
61.  87 GS    87                               1:43.569   0.046   8.945  78.487
62.  36 ST    Compass360/Racing                1:44.647   1.078  10.023  77.678
63.  50 ST    Southpaw Racing                  2:06.717  22.070  32.093  64.149
64.  12 ST    TC Kline Racing                  9:53.197 7:46.48 8:18.57   6.813
65.   6 GS    Zoom Motorsports                  No Time
66.  28 GS    Race Prep Motorsports             No Time
67.  35 GS    Schuitemaker Motorsports          No Time
68.  51 ST    Fountain Motorsports              No Time

Be part of something big

Write a comment
Show comments
About this article
Series Grand-Am
Drivers Matt Connolly , Bill Fenton
Teams Krohn Racing , Rehagen Racing , Turner Motorsport , Team Sahlen , Multimatic Motorsports , Automatic Racing , Bodymotion Racing , SpeedSource